sensor_id;sensor_type;location;lat;lon;timestamp;temperature;humidity
19164;DHT22;9714;51.208;4.242;2023-08-21T00:00:33;23.30;99.90
19164;DHT22;9714;51.208;4.242;2023-08-21T00:03:00;23.20;99.90
19164;DHT22;9714;51.208;4.242;2023-08-21T00:05:27;23.20;99.90
19164;DHT22;9714;51.208;4.242;2023-08-21T00:07:54;23.00;99.90
19164;DHT22;9714;51.208;4.242;2023-08-21T00:10:23;22.70;99.90
19164;DHT22;9714;51.208;4.242;2023-08-21T00:12:50;22.80;99.90
19164;DHT22;9714;51.208;4.242;2023-08-21T00:15:17;22.50;99.90
19164;DHT22;9714;51.208;4.242;2023-08-21T00:17:44;22.40;99.90
19164;DHT22;9714;51.208;4.242;2023-08-21T00:20:12;22.40;99.90
19164;DHT22;9714;51.208;4.242;2023-08-21T00:22:43;22.40;99.90
19164;DHT22;9714;51.208;4.242;2023-08-21T00:25:12;22.60;99.90
19164;DHT22;9714;51.208;4.242;2023-08-21T00:27:43;22.60;99.90
19164;DHT22;9714;51.208;4.242;2023-08-21T00:30:12;22.80;99.90
19164;DHT22;9714;51.208;4.242;2023-08-21T00:32:40;22.70;99.90
19164;DHT22;9714;51.208;4.242;2023-08-21T00:35:07;22.70;99.90
19164;DHT22;9714;51.208;4.242;2023-08-21T00:37:34;22.60;99.90
19164;DHT22;9714;51.208;4.242;2023-08-21T00:40:02;22.60;99.90
19164;DHT22;9714;51.208;4.242;2023-08-21T00:42:29;22.60;99.90
19164;DHT22;9714;51.208;4.242;2023-08-21T00:44:57;22.40;99.90
19164;DHT22;9714;51.208;4.242;2023-08-21T00:47:28;22.30;99.90
19164;DHT22;9714;51.208;4.242;2023-08-21T00:49:55;22.30;99.90
19164;DHT22;9714;51.208;4.242;2023-08-21T00:52:22;22.30;99.90
19164;DHT22;9714;51.208;4.242;2023-08-21T00:54:51;22.30;99.90
19164;DHT22;9714;51.208;4.242;2023-08-21T00:57:20;22.00;99.90
19164;DHT22;9714;51.208;4.242;2023-08-21T00:59:47;22.10;99.90
19164;DHT22;9714;51.208;4.242;2023-08-21T01:02:17;21.90;99.90
19164;DHT22;9714;51.208;4.242;2023-08-21T01:04:45;21.80;99.90
19164;DHT22;9714;51.208;4.242;2023-08-21T01:07:14;21.80;99.90
19164;DHT22;9714;51.208;4.242;2023-08-21T01:09:45;21.80;99.90
19164;DHT22;9714;51.208;4.242;2023-08-21T01:12:23;21.80;99.90
19164;DHT22;9714;51.208;4.242;2023-08-21T01:14:58;21.90;99.90
19164;DHT22;9714;51.208;4.242;2023-08-21T01:17:29;21.80;99.90
19164;DHT22;9714;51.208;4.242;2023-08-21T01:19:56;21.90;99.90
19164;DHT22;9714;51.208;4.242;2023-08-21T01:22:26;21.90;99.90
19164;DHT22;9714;51.208;4.242;2023-08-21T01:24:56;21.90;99.90
19164;DHT22;9714;51.208;4.242;2023-08-21T01:27:24;21.90;99.90
19164;DHT22;9714;51.208;4.242;2023-08-21T01:29:51;21.90;99.90
19164;DHT22;9714;51.208;4.242;2023-08-21T01:32:25;21.80;99.90
19164;DHT22;9714;51.208;4.242;2023-08-21T01:34:55;21.90;99.90
19164;DHT22;9714;51.208;4.242;2023-08-21T01:37:24;21.90;99.90
19164;DHT22;9714;51.208;4.242;2023-08-21T01:39:52;21.90;99.90
19164;DHT22;9714;51.208;4.242;2023-08-21T01:42:22;21.70;99.90
19164;DHT22;9714;51.208;4.242;2023-08-21T01:44:50;21.70;99.90
19164;DHT22;9714;51.208;4.242;2023-08-21T01:47:18;21.60;99.90
19164;DHT22;9714;51.208;4.242;2023-08-21T01:49:47;21.70;99.90
19164;DHT22;9714;51.208;4.242;2023-08-21T01:52:29;21.60;99.90
19164;DHT22;9714;51.208;4.242;2023-08-21T01:54:58;21.60;99.90
19164;DHT22;9714;51.208;4.242;2023-08-21T01:57:29;21.50;99.90
19164;DHT22;9714;51.208;4.242;2023-08-21T01:59:56;21.60;99.90
19164;DHT22;9714;51.208;4.242;2023-08-21T02:02:24;21.70;99.90
19164;DHT22;9714;51.208;4.242;2023-08-21T02:04:51;21.70;99.90
19164;DHT22;9714;51.208;4.242;2023-08-21T02:07:19;21.80;99.90
19164;DHT22;9714;51.208;4.242;2023-08-21T02:09:46;22.10;99.90
19164;DHT22;9714;51.208;4.242;2023-08-21T02:12:14;22.00;99.90
19164;DHT22;9714;51.208;4.242;2023-08-21T02:14:43;22.10;99.90
19164;DHT22;9714;51.208;4.242;2023-08-21T02:17:18;21.70;99.90
19164;DHT22;9714;51.208;4.242;2023-08-21T02:19:51;21.50;99.90
19164;DHT22;9714;51.208;4.242;2023-08-21T02:22:36;21.30;99.90
19164;DHT22;9714;51.208;4.242;2023-08-21T02:25:21;21.20;99.90
19164;DHT22;9714;51.208;4.242;2023-08-21T02:27:54;21.20;99.90
19164;DHT22;9714;51.208;4.242;2023-08-21T02:30:24;21.30;99.90
19164;DHT22;9714;51.208;4.242;2023-08-21T02:32:51;21.20;99.90
19164;DHT22;9714;51.208;4.242;2023-08-21T02:35:19;21.10;99.90
19164;DHT22;9714;51.208;4.242;2023-08-21T02:37:47;21.10;99.90
19164;DHT22;9714;51.208;4.242;2023-08-21T02:40:16;21.10;99.90
19164;DHT22;9714;51.208;4.242;2023-08-21T02:42:43;21.00;99.90
19164;DHT22;9714;51.208;4.242;2023-08-21T02:45:24;21.00;99.90
19164;DHT22;9714;51.208;4.242;2023-08-21T02:47:52;21.10;99.90
19164;DHT22;9714;51.208;4.242;2023-08-21T02:50:19;21.00;99.90
19164;DHT22;9714;51.208;4.242;2023-08-21T02:52:47;21.00;99.90
19164;DHT22;9714;51.208;4.242;2023-08-21T02:55:15;20.90;99.90
19164;DHT22;9714;51.208;4.242;2023-08-21T02:57:42;20.80;99.90
19164;DHT22;9714;51.208;4.242;2023-08-21T03:00:11;20.80;99.90
19164;DHT22;9714;51.208;4.242;2023-08-21T03:02:40;20.70;99.90
19164;DHT22;9714;51.208;4.242;2023-08-21T03:05:10;20.60;99.90
19164;DHT22;9714;51.208;4.242;2023-08-21T03:07:37;20.60;99.90
19164;DHT22;9714;51.208;4.242;2023-08-21T03:10:08;20.60;99.90
19164;DHT22;9714;51.208;4.242;2023-08-21T03:12:35;20.60;99.90
19164;DHT22;9714;51.208;4.242;2023-08-21T03:15:02;20.70;99.90
19164;DHT22;9714;51.208;4.242;2023-08-21T03:17:30;20.60;99.90
19164;DHT22;9714;51.208;4.242;2023-08-21T03:20:01;20.60;99.90
19164;DHT22;9714;51.208;4.242;2023-08-21T03:22:31;20.60;99.90
19164;DHT22;9714;51.208;4.242;2023-08-21T03:24:59;20.50;99.90
19164;DHT22;9714;51.208;4.242;2023-08-21T03:27:26;20.40;99.90
19164;DHT22;9714;51.208;4.242;2023-08-21T03:29:53;20.50;99.90
19164;DHT22;9714;51.208;4.242;2023-08-21T03:32:23;20.50;99.90
19164;DHT22;9714;51.208;4.242;2023-08-21T03:34:50;20.60;99.90
19164;DHT22;9714;51.208;4.242;2023-08-21T03:37:18;20.60;99.90
19164;DHT22;9714;51.208;4.242;2023-08-21T03:39:46;20.80;99.90
19164;DHT22;9714;51.208;4.242;2023-08-21T03:42:13;20.80;99.90
19164;DHT22;9714;51.208;4.242;2023-08-21T03:44:41;20.70;99.90
19164;DHT22;9714;51.208;4.242;2023-08-21T03:47:09;20.60;99.90
19164;DHT22;9714;51.208;4.242;2023-08-21T03:49:36;20.40;99.90
19164;DHT22;9714;51.208;4.242;2023-08-21T03:52:04;20.30;99.90
19164;DHT22;9714;51.208;4.242;2023-08-21T03:54:32;20.30;99.90
19164;DHT22;9714;51.208;4.242;2023-08-21T03:57:01;20.40;99.90
19164;DHT22;9714;51.208;4.242;2023-08-21T03:59:29;20.50;99.90
19164;DHT22;9714;51.208;4.242;2023-08-21T04:01:57;20.50;99.90
19164;DHT22;9714;51.208;4.242;2023-08-21T04:04:24;20.30;99.90
19164;DHT22;9714;51.208;4.242;2023-08-21T04:06:52;20.20;99.90
19164;DHT22;9714;51.208;4.242;2023-08-21T04:09:19;20.20;99.90
19164;DHT22;9714;51.208;4.242;2023-08-21T04:11:48;20.20;99.90
19164;DHT22;9714;51.208;4.242;2023-08-21T04:14:16;20.10;99.90
19164;DHT22;9714;51.208;4.242;2023-08-21T04:16:43;20.00;99.90
19164;DHT22;9714;51.208;4.242;2023-08-21T04:19:11;19.90;99.90
19164;DHT22;9714;51.208;4.242;2023-08-21T04:21:38;19.90;99.90
19164;DHT22;9714;51.208;4.242;2023-08-21T04:24:11;19.90;99.90
19164;DHT22;9714;51.208;4.242;2023-08-21T04:26:38;20.00;99.90
19164;DHT22;9714;51.208;4.242;2023-08-21T04:29:07;20.00;99.90
19164;DHT22;9714;51.208;4.242;2023-08-21T04:31:35;20.00;99.90
19164;DHT22;9714;51.208;4.242;2023-08-21T04:34:02;20.10;99.90
19164;DHT22;9714;51.208;4.242;2023-08-21T04:36:29;20.10;99.90
19164;DHT22;9714;51.208;4.242;2023-08-21T04:39:02;20.10;99.90
19164;DHT22;9714;51.208;4.242;2023-08-21T04:41:29;20.00;99.90
19164;DHT22;9714;51.208;4.242;2023-08-21T04:43:57;19.90;99.90
19164;DHT22;9714;51.208;4.242;2023-08-21T04:46:26;20.00;99.90
19164;DHT22;9714;51.208;4.242;2023-08-21T04:48:54;20.00;99.90
19164;DHT22;9714;51.208;4.242;2023-08-21T04:51:21;19.90;99.90
19164;DHT22;9714;51.208;4.242;2023-08-21T04:53:48;20.00;99.90
19164;DHT22;9714;51.208;4.242;2023-08-21T04:56:16;20.10;99.90
19164;DHT22;9714;51.208;4.242;2023-08-21T04:58:45;20.10;99.90
19164;DHT22;9714;51.208;4.242;2023-08-21T05:01:13;20.10;99.90
19164;DHT22;9714;51.208;4.242;2023-08-21T05:03:42;20.10;99.90
19164;DHT22;9714;51.208;4.242;2023-08-21T05:06:10;20.10;99.90
19164;DHT22;9714;51.208;4.242;2023-08-21T05:08:37;20.00;99.90
19164;DHT22;9714;51.208;4.242;2023-08-21T05:11:04;20.00;99.90
19164;DHT22;9714;51.208;4.242;2023-08-21T05:13:34;20.00;99.90
19164;DHT22;9714;51.208;4.242;2023-08-21T05:16:02;19.90;99.90
19164;DHT22;9714;51.208;4.242;2023-08-21T05:18:29;20.00;99.90
19164;DHT22;9714;51.208;4.242;2023-08-21T05:20:59;20.10;99.90
19164;DHT22;9714;51.208;4.242;2023-08-21T05:23:26;20.10;99.90
19164;DHT22;9714;51.208;4.242;2023-08-21T05:25:54;20.00;99.90
19164;DHT22;9714;51.208;4.242;2023-08-21T05:28:21;20.00;99.90
19164;DHT22;9714;51.208;4.242;2023-08-21T05:30:49;19.90;99.90
19164;DHT22;9714;51.208;4.242;2023-08-21T05:33:17;19.90;99.90
19164;DHT22;9714;51.208;4.242;2023-08-21T05:35:45;20.10;99.90
19164;DHT22;9714;51.208;4.242;2023-08-21T05:38:13;20.30;99.90
19164;DHT22;9714;51.208;4.242;2023-08-21T05:40:42;20.30;99.90
19164;DHT22;9714;51.208;4.242;2023-08-21T05:43:09;20.30;99.90
19164;DHT22;9714;51.208;4.242;2023-08-21T05:45:36;20.20;99.90
19164;DHT22;9714;51.208;4.242;2023-08-21T05:48:09;20.20;99.90
19164;DHT22;9714;51.208;4.242;2023-08-21T05:50:36;20.30;99.90
19164;DHT22;9714;51.208;4.242;2023-08-21T05:53:04;20.40;99.90
19164;DHT22;9714;51.208;4.242;2023-08-21T05:55:33;20.40;99.90
19164;DHT22;9714;51.208;4.242;2023-08-21T05:58:00;20.50;99.90
19164;DHT22;9714;51.208;4.242;2023-08-21T06:00:28;20.40;99.90
19164;DHT22;9714;51.208;4.242;2023-08-21T06:02:56;20.40;99.90
19164;DHT22;9714;51.208;4.242;2023-08-21T06:05:23;20.50;99.90
19164;DHT22;9714;51.208;4.242;2023-08-21T06:07:50;20.80;99.90
19164;DHT22;9714;51.208;4.242;2023-08-21T06:10:18;21.00;99.90
19164;DHT22;9714;51.208;4.242;2023-08-21T06:12:49;21.00;99.90
19164;DHT22;9714;51.208;4.242;2023-08-21T06:15:18;21.10;99.90
19164;DHT22;9714;51.208;4.242;2023-08-21T06:17:47;21.10;99.90
19164;DHT22;9714;51.208;4.242;2023-08-21T06:20:14;21.30;99.90
19164;DHT22;9714;51.208;4.242;2023-08-21T06:22:41;21.40;99.90
19164;DHT22;9714;51.208;4.242;2023-08-21T06:25:08;21.60;99.90
19164;DHT22;9714;51.208;4.242;2023-08-21T06:27:36;21.80;99.90
19164;DHT22;9714;51.208;4.242;2023-08-21T06:30:05;21.70;99.90
19164;DHT22;9714;51.208;4.242;2023-08-21T06:32:32;21.80;99.90
19164;DHT22;9714;51.208;4.242;2023-08-21T06:35:00;21.90;99.90
19164;DHT22;9714;51.208;4.242;2023-08-21T06:37:27;22.10;99.90
19164;DHT22;9714;51.208;4.242;2023-08-21T06:39:54;22.30;99.90
19164;DHT22;9714;51.208;4.242;2023-08-21T06:42:21;22.10;99.90
19164;DHT22;9714;51.208;4.242;2023-08-21T06:44:48;22.10;99.90
19164;DHT22;9714;51.208;4.242;2023-08-21T06:47:17;22.20;99.90
19164;DHT22;9714;51.208;4.242;2023-08-21T06:49:45;22.30;99.90
19164;DHT22;9714;51.208;4.242;2023-08-21T06:52:13;22.50;99.90
19164;DHT22;9714;51.208;4.242;2023-08-21T06:54:40;22.50;99.90
19164;DHT22;9714;51.208;4.242;2023-08-21T06:57:07;22.70;99.90
19164;DHT22;9714;51.208;4.242;2023-08-21T06:59:34;22.70;99.90
19164;DHT22;9714;51.208;4.242;2023-08-21T07:02:01;22.90;99.90
19164;DHT22;9714;51.208;4.242;2023-08-21T07:04:31;23.00;99.90
19164;DHT22;9714;51.208;4.242;2023-08-21T07:07:00;23.50;99.90
19164;DHT22;9714;51.208;4.242;2023-08-21T07:09:28;23.60;99.90
19164;DHT22;9714;51.208;4.242;2023-08-21T07:11:55;24.10;99.90
19164;DHT22;9714;51.208;4.242;2023-08-21T07:14:22;24.40;99.90
19164;DHT22;9714;51.208;4.242;2023-08-21T07:16:49;24.50;99.90
19164;DHT22;9714;51.208;4.242;2023-08-21T07:19:17;24.30;99.90
19164;DHT22;9714;51.208;4.242;2023-08-21T07:21:45;24.70;99.90
19164;DHT22;9714;51.208;4.242;2023-08-21T07:24:12;25.20;99.90
19164;DHT22;9714;51.208;4.242;2023-08-21T07:26:39;25.30;99.90
19164;DHT22;9714;51.208;4.242;2023-08-21T07:29:06;25.10;99.90
19164;DHT22;9714;51.208;4.242;2023-08-21T07:31:34;25.40;99.90
19164;DHT22;9714;51.208;4.242;2023-08-21T07:34:01;25.70;99.90
19164;DHT22;9714;51.208;4.242;2023-08-21T07:36:29;25.90;99.90
19164;DHT22;9714;51.208;4.242;2023-08-21T07:38:58;26.60;99.90
19164;DHT22;9714;51.208;4.242;2023-08-21T07:41:25;27.10;99.90
19164;DHT22;9714;51.208;4.242;2023-08-21T07:43:52;27.50;99.90
19164;DHT22;9714;51.208;4.242;2023-08-21T07:46:19;28.10;99.90
19164;DHT22;9714;51.208;4.242;2023-08-21T07:48:47;28.40;99.90
19164;DHT22;9714;51.208;4.242;2023-08-21T07:51:15;28.40;99.90
19164;DHT22;9714;51.208;4.242;2023-08-21T07:53:42;27.70;99.90
19164;DHT22;9714;51.208;4.242;2023-08-21T07:56:10;27.10;99.90
19164;DHT22;9714;51.208;4.242;2023-08-21T07:58:37;26.40;99.90
19164;DHT22;9714;51.208;4.242;2023-08-21T08:01:05;26.10;99.90
19164;DHT22;9714;51.208;4.242;2023-08-21T08:03:32;26.00;99.90
19164;DHT22;9714;51.208;4.242;2023-08-21T08:05:59;26.80;99.90
19164;DHT22;9714;51.208;4.242;2023-08-21T08:08:26;27.80;99.90
19164;DHT22;9714;51.208;4.242;2023-08-21T08:10:54;28.40;99.90
19164;DHT22;9714;51.208;4.242;2023-08-21T08:13:23;29.00;99.90
19164;DHT22;9714;51.208;4.242;2023-08-21T08:15:50;29.50;99.90
19164;DHT22;9714;51.208;4.242;2023-08-21T08:18:17;29.50;99.90
19164;DHT22;9714;51.208;4.242;2023-08-21T08:20:44;29.80;99.90
19164;DHT22;9714;51.208;4.242;2023-08-21T08:23:11;30.30;99.90
19164;DHT22;9714;51.208;4.242;2023-08-21T08:25:38;30.80;99.90
19164;DHT22;9714;51.208;4.242;2023-08-21T08:28:05;31.00;99.90
19164;DHT22;9714;51.208;4.242;2023-08-21T08:30:34;31.50;99.90
19164;DHT22;9714;51.208;4.242;2023-08-21T08:33:02;31.10;99.90
19164;DHT22;9714;51.208;4.242;2023-08-21T08:35:29;31.30;99.90
19164;DHT22;9714;51.208;4.242;2023-08-21T08:37:56;31.50;99.90
19164;DHT22;9714;51.208;4.242;2023-08-21T08:40:24;31.50;99.90
19164;DHT22;9714;51.208;4.242;2023-08-21T08:42:54;30.90;99.90
19164;DHT22;9714;51.208;4.242;2023-08-21T08:45:28;30.80;99.90
19164;DHT22;9714;51.208;4.242;2023-08-21T08:47:59;31.20;99.90
19164;DHT22;9714;51.208;4.242;2023-08-21T08:50:29;31.50;99.90
19164;DHT22;9714;51.208;4.242;2023-08-21T08:52:57;32.40;99.50
19164;DHT22;9714;51.208;4.242;2023-08-21T08:55:24;32.60;98.30
19164;DHT22;9714;51.208;4.242;2023-08-21T08:57:52;32.70;97.60
19164;DHT22;9714;51.208;4.242;2023-08-21T09:00:20;33.10;97.00
19164;DHT22;9714;51.208;4.242;2023-08-21T09:02:48;33.50;94.90
19164;DHT22;9714;51.208;4.242;2023-08-21T09:05:17;33.90;92.00
19164;DHT22;9714;51.208;4.242;2023-08-21T09:07:44;34.00;91.90
19164;DHT22;9714;51.208;4.242;2023-08-21T09:10:15;34.10;91.60
19164;DHT22;9714;51.208;4.242;2023-08-21T09:12:45;33.80;91.50
19164;DHT22;9714;51.208;4.242;2023-08-21T09:15:12;33.50;91.30
19164;DHT22;9714;51.208;4.242;2023-08-21T09:17:39;33.70;91.50
19164;DHT22;9714;51.208;4.242;2023-08-21T09:20:08;34.40;89.90
19164;DHT22;9714;51.208;4.242;2023-08-21T09:22:37;35.00;87.50
19164;DHT22;9714;51.208;4.242;2023-08-21T09:25:05;35.40;83.30
19164;DHT22;9714;51.208;4.242;2023-08-21T09:27:35;35.40;76.70
19164;DHT22;9714;51.208;4.242;2023-08-21T09:30:04;35.60;76.30
19164;DHT22;9714;51.208;4.242;2023-08-21T09:32:52;35.60;76.80
19164;DHT22;9714;51.208;4.242;2023-08-21T09:35:20;35.80;76.80
19164;DHT22;9714;51.208;4.242;2023-08-21T09:37:49;35.40;76.80
19164;DHT22;9714;51.208;4.242;2023-08-21T09:40:19;35.60;74.20
19164;DHT22;9714;51.208;4.242;2023-08-21T09:42:51;35.90;73.30
19164;DHT22;9714;51.208;4.242;2023-08-21T09:45:20;36.20;69.20
19164;DHT22;9714;51.208;4.242;2023-08-21T09:47:48;36.40;70.00
19164;DHT22;9714;51.208;4.242;2023-08-21T09:50:18;36.60;68.40
19164;DHT22;9714;51.208;4.242;2023-08-21T09:52:45;36.90;67.30
19164;DHT22;9714;51.208;4.242;2023-08-21T09:55:14;36.90;64.50
19164;DHT22;9714;51.208;4.242;2023-08-21T09:57:42;36.50;65.10
19164;DHT22;9714;51.208;4.242;2023-08-21T10:00:11;36.80;64.50
19164;DHT22;9714;51.208;4.242;2023-08-21T10:02:43;37.00;63.00
19164;DHT22;9714;51.208;4.242;2023-08-21T10:05:16;37.80;62.60
19164;DHT22;9714;51.208;4.242;2023-08-21T10:07:44;38.00;61.20
19164;DHT22;9714;51.208;4.242;2023-08-21T10:10:15;37.90;61.00
19164;DHT22;9714;51.208;4.242;2023-08-21T10:12:42;38.60;59.20
19164;DHT22;9714;51.208;4.242;2023-08-21T10:15:10;37.80;59.00
19164;DHT22;9714;51.208;4.242;2023-08-21T10:17:37;38.10;58.10
19164;DHT22;9714;51.208;4.242;2023-08-21T10:20:06;38.50;58.10
19164;DHT22;9714;51.208;4.242;2023-08-21T10:22:44;38.10;58.70
19164;DHT22;9714;51.208;4.242;2023-08-21T10:25:18;38.20;57.80
19164;DHT22;9714;51.208;4.242;2023-08-21T10:27:50;38.50;57.90
19164;DHT22;9714;51.208;4.242;2023-08-21T10:30:23;38.50;57.20
19164;DHT22;9714;51.208;4.242;2023-08-21T10:32:53;38.50;56.80
19164;DHT22;9714;51.208;4.242;2023-08-21T10:35:22;39.30;56.20
19164;DHT22;9714;51.208;4.242;2023-08-21T10:38:11;39.30;55.10
19164;DHT22;9714;51.208;4.242;2023-08-21T10:40:41;39.80;54.00
19164;DHT22;9714;51.208;4.242;2023-08-21T10:43:36;39.00;54.00
19164;DHT22;9714;51.208;4.242;2023-08-21T10:46:05;39.20;54.30
19164;DHT22;9714;51.208;4.242;2023-08-21T10:48:39;38.60;55.00
19164;DHT22;9714;51.208;4.242;2023-08-21T10:51:07;39.10;54.60
19164;DHT22;9714;51.208;4.242;2023-08-21T10:53:35;39.60;52.30
19164;DHT22;9714;51.208;4.242;2023-08-21T10:56:06;39.50;52.80
19164;DHT22;9714;51.208;4.242;2023-08-21T10:58:38;39.70;52.90
19164;DHT22;9714;51.208;4.242;2023-08-21T11:01:05;40.30;51.90
19164;DHT22;9714;51.208;4.242;2023-08-21T11:03:32;40.90;50.70
19164;DHT22;9714;51.208;4.242;2023-08-21T11:06:04;40.30;51.10
19164;DHT22;9714;51.208;4.242;2023-08-21T11:08:32;40.90;50.90
19164;DHT22;9714;51.208;4.242;2023-08-21T11:10:59;40.50;49.20
19164;DHT22;9714;51.208;4.242;2023-08-21T11:13:28;41.10;48.20
19164;DHT22;9714;51.208;4.242;2023-08-21T11:15:58;41.40;45.30
19164;DHT22;9714;51.208;4.242;2023-08-21T11:18:30;41.40;46.00
19164;DHT22;9714;51.208;4.242;2023-08-21T11:21:05;40.80;46.90
19164;DHT22;9714;51.208;4.242;2023-08-21T11:23:33;41.30;45.60
19164;DHT22;9714;51.208;4.242;2023-08-21T11:26:01;41.60;44.80
19164;DHT22;9714;51.208;4.242;2023-08-21T11:28:31;41.70;43.50
19164;DHT22;9714;51.208;4.242;2023-08-21T11:30:58;41.50;43.10
19164;DHT22;9714;51.208;4.242;2023-08-21T11:33:27;41.50;43.40
19164;DHT22;9714;51.208;4.242;2023-08-21T11:35:55;42.00;42.60
19164;DHT22;9714;51.208;4.242;2023-08-21T11:38:25;42.10;42.30
19164;DHT22;9714;51.208;4.242;2023-08-21T11:40:54;42.50;41.50
19164;DHT22;9714;51.208;4.242;2023-08-21T11:43:21;42.40;41.30
19164;DHT22;9714;51.208;4.242;2023-08-21T11:45:50;42.60;39.00
19164;DHT22;9714;51.208;4.242;2023-08-21T11:48:19;42.40;38.90
19164;DHT22;9714;51.208;4.242;2023-08-21T11:50:48;42.30;42.00
19164;DHT22;9714;51.208;4.242;2023-08-21T11:53:34;42.30;42.10
19164;DHT22;9714;51.208;4.242;2023-08-21T11:56:02;42.80;42.40
19164;DHT22;9714;51.208;4.242;2023-08-21T11:58:29;42.50;42.60
19164;DHT22;9714;51.208;4.242;2023-08-21T12:01:03;42.20;42.70
19164;DHT22;9714;51.208;4.242;2023-08-21T12:03:30;42.20;43.00
19164;DHT22;9714;51.208;4.242;2023-08-21T12:05:57;42.80;41.60
19164;DHT22;9714;51.208;4.242;2023-08-21T12:08:25;43.30;40.90
19164;DHT22;9714;51.208;4.242;2023-08-21T12:10:52;43.20;40.60
19164;DHT22;9714;51.208;4.242;2023-08-21T12:13:20;42.80;40.10
19164;DHT22;9714;51.208;4.242;2023-08-21T12:15:48;42.60;40.60
19164;DHT22;9714;51.208;4.242;2023-08-21T12:18:17;41.60;40.80
19164;DHT22;9714;51.208;4.242;2023-08-21T12:20:46;41.30;41.80
19164;DHT22;9714;51.208;4.242;2023-08-21T12:23:13;41.40;42.60
19164;DHT22;9714;51.208;4.242;2023-08-21T12:25:40;42.10;41.10
19164;DHT22;9714;51.208;4.242;2023-08-21T12:28:08;42.60;41.20
19164;DHT22;9714;51.208;4.242;2023-08-21T12:30:35;42.40;41.10
19164;DHT22;9714;51.208;4.242;2023-08-21T12:33:02;42.20;41.00
19164;DHT22;9714;51.208;4.242;2023-08-21T12:35:31;42.50;40.70
19164;DHT22;9714;51.208;4.242;2023-08-21T12:37:58;42.70;40.00
19164;DHT22;9714;51.208;4.242;2023-08-21T12:40:31;42.40;38.80
19164;DHT22;9714;51.208;4.242;2023-08-21T12:42:58;42.40;39.90
19164;DHT22;9714;51.208;4.242;2023-08-21T12:45:26;42.60;40.30
19164;DHT22;9714;51.208;4.242;2023-08-21T12:47:59;42.30;39.70
19164;DHT22;9714;51.208;4.242;2023-08-21T12:50:26;42.30;40.10
19164;DHT22;9714;51.208;4.242;2023-08-21T12:52:54;42.80;40.90
19164;DHT22;9714;51.208;4.242;2023-08-21T12:55:21;43.30;40.30
19164;DHT22;9714;51.208;4.242;2023-08-21T12:57:48;42.90;40.10
19164;DHT22;9714;51.208;4.242;2023-08-21T13:00:16;43.10;39.20
19164;DHT22;9714;51.208;4.242;2023-08-21T13:02:43;43.10;40.10
19164;DHT22;9714;51.208;4.242;2023-08-21T13:05:10;43.20;39.70
19164;DHT22;9714;51.208;4.242;2023-08-21T13:07:37;42.70;40.30
19164;DHT22;9714;51.208;4.242;2023-08-21T13:10:07;42.40;40.20
19164;DHT22;9714;51.208;4.242;2023-08-21T13:12:34;42.50;41.20
19164;DHT22;9714;51.208;4.242;2023-08-21T13:15:02;40.90;41.40
19164;DHT22;9714;51.208;4.242;2023-08-21T13:17:29;41.20;42.00
19164;DHT22;9714;51.208;4.242;2023-08-21T13:19:56;42.50;41.10
19164;DHT22;9714;51.208;4.242;2023-08-21T13:22:23;42.80;40.60
19164;DHT22;9714;51.208;4.242;2023-08-21T13:24:50;42.80;40.30
19164;DHT22;9714;51.208;4.242;2023-08-21T13:27:19;43.00;40.30
19164;DHT22;9714;51.208;4.242;2023-08-21T13:29:46;43.20;39.70
19164;DHT22;9714;51.208;4.242;2023-08-21T13:32:13;43.30;40.00
19164;DHT22;9714;51.208;4.242;2023-08-21T13:34:40;43.40;39.80
19164;DHT22;9714;51.208;4.242;2023-08-21T13:37:07;42.60;39.90
19164;DHT22;9714;51.208;4.242;2023-08-21T13:39:34;42.60;40.70
19164;DHT22;9714;51.208;4.242;2023-08-21T13:42:01;43.40;40.50
19164;DHT22;9714;51.208;4.242;2023-08-21T13:44:30;43.60;39.90
19164;DHT22;9714;51.208;4.242;2023-08-21T13:46:57;43.80;39.40
19164;DHT22;9714;51.208;4.242;2023-08-21T13:49:24;42.20;41.50
19164;DHT22;9714;51.208;4.242;2023-08-21T13:51:51;41.80;42.10
19164;DHT22;9714;51.208;4.242;2023-08-21T13:54:18;42.00;42.60
19164;DHT22;9714;51.208;4.242;2023-08-21T13:56:45;42.30;42.90
19164;DHT22;9714;51.208;4.242;2023-08-21T13:59:12;41.90;43.00
19164;DHT22;9714;51.208;4.242;2023-08-21T14:01:40;42.90;41.70
19164;DHT22;9714;51.208;4.242;2023-08-21T14:04:07;43.30;41.70
19164;DHT22;9714;51.208;4.242;2023-08-21T14:06:35;43.10;41.60
19164;DHT22;9714;51.208;4.242;2023-08-21T14:09:02;42.80;41.20
19164;DHT22;9714;51.208;4.242;2023-08-21T14:11:30;43.20;40.30
19164;DHT22;9714;51.208;4.242;2023-08-21T14:13:58;43.20;39.90
19164;DHT22;9714;51.208;4.242;2023-08-21T14:16:27;43.40;42.00
19164;DHT22;9714;51.208;4.242;2023-08-21T14:18:55;42.00;42.60
19164;DHT22;9714;51.208;4.242;2023-08-21T14:21:23;39.80;44.90
19164;DHT22;9714;51.208;4.242;2023-08-21T14:23:50;39.70;45.80
19164;DHT22;9714;51.208;4.242;2023-08-21T14:26:17;40.00;45.70
19164;DHT22;9714;51.208;4.242;2023-08-21T14:28:44;40.70;45.10
19164;DHT22;9714;51.208;4.242;2023-08-21T14:31:16;41.60;43.90
19164;DHT22;9714;51.208;4.242;2023-08-21T14:33:43;41.90;43.50
19164;DHT22;9714;51.208;4.242;2023-08-21T14:36:12;40.80;43.60
19164;DHT22;9714;51.208;4.242;2023-08-21T14:38:39;41.00;44.50
19164;DHT22;9714;51.208;4.242;2023-08-21T14:41:07;40.50;45.40
19164;DHT22;9714;51.208;4.242;2023-08-21T14:43:34;40.00;44.60
19164;DHT22;9714;51.208;4.242;2023-08-21T14:46:01;40.30;44.60
19164;DHT22;9714;51.208;4.242;2023-08-21T14:48:29;39.60;44.70
19164;DHT22;9714;51.208;4.242;2023-08-21T14:50:56;39.80;45.80
19164;DHT22;9714;51.208;4.242;2023-08-21T14:53:25;39.00;46.30
19164;DHT22;9714;51.208;4.242;2023-08-21T14:55:52;38.60;46.60
19164;DHT22;9714;51.208;4.242;2023-08-21T14:58:19;37.90;48.10
19164;DHT22;9714;51.208;4.242;2023-08-21T15:00:47;37.00;48.90
19164;DHT22;9714;51.208;4.242;2023-08-21T15:03:15;36.80;49.70
19164;DHT22;9714;51.208;4.242;2023-08-21T15:05:44;37.40;47.70
19164;DHT22;9714;51.208;4.242;2023-08-21T15:08:11;37.60;48.00
19164;DHT22;9714;51.208;4.242;2023-08-21T15:10:39;38.30;46.80
19164;DHT22;9714;51.208;4.242;2023-08-21T15:13:06;39.10;46.60
19164;DHT22;9714;51.208;4.242;2023-08-21T15:15:33;39.30;45.40
19164;DHT22;9714;51.208;4.242;2023-08-21T15:18:02;40.00;45.20
19164;DHT22;9714;51.208;4.242;2023-08-21T15:20:29;39.80;44.40
19164;DHT22;9714;51.208;4.242;2023-08-21T15:22:56;40.10;44.40
19164;DHT22;9714;51.208;4.242;2023-08-21T15:25:24;40.00;46.20
19164;DHT22;9714;51.208;4.242;2023-08-21T15:27:52;40.30;46.00
19164;DHT22;9714;51.208;4.242;2023-08-21T15:30:20;40.30;45.10
19164;DHT22;9714;51.208;4.242;2023-08-21T15:32:47;39.60;44.90
19164;DHT22;9714;51.208;4.242;2023-08-21T15:35:14;39.90;44.60
19164;DHT22;9714;51.208;4.242;2023-08-21T15:37:41;40.10;44.80
19164;DHT22;9714;51.208;4.242;2023-08-21T15:40:11;39.80;45.30
19164;DHT22;9714;51.208;4.242;2023-08-21T15:42:40;40.00;46.20
19164;DHT22;9714;51.208;4.242;2023-08-21T15:45:09;40.60;45.40
19164;DHT22;9714;51.208;4.242;2023-08-21T15:47:36;39.60;45.90
19164;DHT22;9714;51.208;4.242;2023-08-21T15:50:03;39.00;46.40
19164;DHT22;9714;51.208;4.242;2023-08-21T15:52:30;39.10;47.10